sensor_id;sensor_type;location;lat;lon;timestamp;pressure;altitude;pressure_sealevel;temperature;humidity
31337;BME280;22846;42.654;23.314;2023-11-18T00:01:03;93785.03;;;23.82;55.93
31337;BME280;22846;42.654;23.314;2023-11-18T00:03:28;93790.66;;;23.88;55.79
31337;BME280;22846;42.654;23.314;2023-11-18T00:05:54;93795.66;;;23.89;56.36
31337;BME280;22846;42.654;23.314;2023-11-18T00:08:19;93797.63;;;23.89;56.64
31337;BME280;22846;42.654;23.314;2023-11-18T00:10:45;93802.16;;;23.92;56.07
31337;BME280;22846;42.654;23.314;2023-11-18T00:13:10;93794.91;;;23.89;55.89
31337;BME280;22846;42.654;23.314;2023-11-18T00:15:35;93795.34;;;23.87;56.02
31337;BME280;22846;42.654;23.314;2023-11-18T00:18:01;93817.63;;;23.86;56.24
31337;BME280;22846;42.654;23.314;2023-11-18T00:20:26;93814.28;;;23.82;56.22
31337;BME280;22846;42.654;23.314;2023-11-18T00:22:52;93826.44;;;23.81;56.10
31337;BME280;22846;42.654;23.314;2023-11-18T00:25:19;93822.63;;;23.87;56.13
31337;BME280;22846;42.654;23.314;2023-11-18T00:27:44;93805.50;;;23.87;55.88
31337;BME280;22846;42.654;23.314;2023-11-18T00:30:10;93791.09;;;23.86;55.98
31337;BME280;22846;42.654;23.314;2023-11-18T00:32:38;93788.84;;;23.85;56.21
31337;BME280;22846;42.654;23.314;2023-11-18T00:35:04;93796.28;;;23.84;56.33
31337;BME280;22846;42.654;23.314;2023-11-18T00:37:30;93788.66;;;23.79;56.11
31337;BME280;22846;42.654;23.314;2023-11-18T00:39:56;93788.09;;;23.84;56.20
31337;BME280;22846;42.654;23.314;2023-11-18T00:42:22;93784.72;;;23.80;55.66
31337;BME280;22846;42.654;23.314;2023-11-18T00:44:47;93791.84;;;23.78;55.72
31337;BME280;22846;42.654;23.314;2023-11-18T00:47:13;93800.34;;;23.80;55.75
31337;BME280;22846;42.654;23.314;2023-11-18T00:49:38;93798.38;;;23.80;55.99
31337;BME280;22846;42.654;23.314;2023-11-18T00:52:04;93808.06;;;23.81;55.83
31337;BME280;22846;42.654;23.314;2023-11-18T00:54:30;93804.44;;;23.75;56.19
31337;BME280;22846;42.654;23.314;2023-11-18T00:56:55;93812.78;;;23.81;56.03
31337;BME280;22846;42.654;23.314;2023-11-18T00:59:21;93793.53;;;23.75;55.61
31337;BME280;22846;42.654;23.314;2023-11-18T01:01:46;93806.72;;;23.77;56.01
31337;BME280;22846;42.654;23.314;2023-11-18T01:04:11;93805.19;;;23.76;55.73
31337;BME280;22846;42.654;23.314;2023-11-18T01:06:37;93812.91;;;23.77;56.22
31337;BME280;22846;42.654;23.314;2023-11-18T01:09:03;93812.16;;;23.77;55.77
31337;BME280;22846;42.654;23.314;2023-11-18T01:11:29;93809.75;;;23.79;55.61
31337;BME280;22846;42.654;23.314;2023-11-18T01:13:54;93818.38;;;23.77;55.57
31337;BME280;22846;42.654;23.314;2023-11-18T01:16:20;93826.56;;;23.77;55.94
31337;BME280;22846;42.654;23.314;2023-11-18T01:18:46;93822.41;;;23.73;55.98
31337;BME280;22846;42.654;23.314;2023-11-18T01:21:12;93828.78;;;23.70;55.91
31337;BME280;22846;42.654;23.314;2023-11-18T01:23:38;93840.66;;;23.76;55.95
31337;BME280;22846;42.654;23.314;2023-11-18T01:26:05;93835.31;;;23.72;55.80
31337;BME280;22846;42.654;23.314;2023-11-18T01:28:39;93829.13;;;23.72;55.73
31337;BME280;22846;42.654;23.314;2023-11-18T01:31:09;93823.94;;;23.74;55.73
31337;BME280;22846;42.654;23.314;2023-11-18T01:33:39;93825.50;;;23.75;55.46
31337;BME280;22846;42.654;23.314;2023-11-18T01:36:09;93835.66;;;23.74;55.90
31337;BME280;22846;42.654;23.314;2023-11-18T01:38:35;93826.66;;;23.65;55.76
31337;BME280;22846;42.654;23.314;2023-11-18T01:41:03;93824.09;;;23.70;55.44
31337;BME280;22846;42.654;23.314;2023-11-18T01:43:30;93827.88;;;23.73;55.39
31337;BME280;22846;42.654;23.314;2023-11-18T01:45:58;93824.53;;;23.69;55.80
31337;BME280;22846;42.654;23.314;2023-11-18T01:48:27;93828.34;;;23.71;55.28
31337;BME280;22846;42.654;23.314;2023-11-18T01:50:55;93826.38;;;23.72;55.43
31337;BME280;22846;42.654;23.314;2023-11-18T01:53:23;93820.94;;;23.72;55.39
31337;BME280;22846;42.654;23.314;2023-11-18T01:55:49;93831.84;;;23.72;55.27
31337;BME280;22846;42.654;23.314;2023-11-18T01:58:15;93826.06;;;23.70;55.12
31337;BME280;22846;42.654;23.314;2023-11-18T02:00:45;93837.28;;;23.72;55.11
31337;BME280;22846;42.654;23.314;2023-11-18T02:03:12;93837.72;;;23.70;55.21
31337;BME280;22846;42.654;23.314;2023-11-18T02:05:38;93834.25;;;23.70;55.06
31337;BME280;22846;42.654;23.314;2023-11-18T02:08:04;93842.13;;;23.68;55.28
31337;BME280;22846;42.654;23.314;2023-11-18T02:10:54;93827.09;;;23.63;55.33
31337;BME280;22846;42.654;23.314;2023-11-18T02:13:29;93828.94;;;23.66;55.08
31337;BME280;22846;42.654;23.314;2023-11-18T02:15:57;93830.00;;;23.69;55.25
31337;BME280;22846;42.654;23.314;2023-11-18T02:18:27;93831.66;;;23.66;54.99
31337;BME280;22846;42.654;23.314;2023-11-18T02:20:55;93831.03;;;23.62;55.08
31337;BME280;22846;42.654;23.314;2023-11-18T02:23:23;93849.56;;;23.67;55.34
31337;BME280;22846;42.654;23.314;2023-11-18T02:25:48;93852.72;;;23.66;54.78
31337;BME280;22846;42.654;23.314;2023-11-18T02:28:14;93837.84;;;23.58;55.20
31337;BME280;22846;42.654;23.314;2023-11-18T02:30:43;93836.34;;;23.66;54.96
31337;BME280;22846;42.654;23.314;2023-11-18T02:33:22;93835.59;;;23.65;55.04
31337;BME280;22846;42.654;23.314;2023-11-18T02:36:03;93837.28;;;23.63;55.15
31337;BME280;22846;42.654;23.314;2023-11-18T02:38:35;93827.09;;;23.63;54.72
31337;BME280;22846;42.654;23.314;2023-11-18T02:41:09;93822.69;;;23.57;55.14
31337;BME280;22846;42.654;23.314;2023-11-18T02:43:36;93831.50;;;23.61;55.04
31337;BME280;22846;42.654;23.314;2023-11-18T02:46:04;93830.72;;;23.60;54.94
31337;BME280;22846;42.654;23.314;2023-11-18T02:48:32;93833.16;;;23.58;54.69
31337;BME280;22846;42.654;23.314;2023-11-18T02:50:58;93850.75;;;23.57;54.69
31337;BME280;22846;42.654;23.314;2023-11-18T02:53:24;93852.13;;;23.62;54.54
31337;BME280;22846;42.654;23.314;2023-11-18T02:55:50;93858.78;;;23.61;54.83
31337;BME280;22846;42.654;23.314;2023-11-18T02:58:18;93846.66;;;23.62;54.77
31337;BME280;22846;42.654;23.314;2023-11-18T03:00:43;93854.84;;;23.62;54.93
31337;BME280;22846;42.654;23.314;2023-11-18T03:03:09;93853.31;;;23.61;54.91
31337;BME280;22846;42.654;23.314;2023-11-18T03:05:36;93848.41;;;23.47;54.45
31337;BME280;22846;42.654;23.314;2023-11-18T03:08:02;93862.06;;;23.56;54.53
31337;BME280;22846;42.654;23.314;2023-11-18T03:10:33;93862.41;;;23.58;54.83
31337;BME280;22846;42.654;23.314;2023-11-18T03:13:00;93878.28;;;23.59;54.77
31337;BME280;22846;42.654;23.314;2023-11-18T03:15:26;93872.09;;;23.59;54.13
31337;BME280;22846;42.654;23.314;2023-11-18T03:17:52;93889.97;;;23.60;54.26
31337;BME280;22846;42.654;23.314;2023-11-18T03:20:20;93908.28;;;23.59;54.66
31337;BME280;22846;42.654;23.314;2023-11-18T03:22:49;93886.00;;;23.52;54.77
31337;BME280;22846;42.654;23.314;2023-11-18T03:25:17;93904.50;;;23.57;54.43
31337;BME280;22846;42.654;23.314;2023-11-18T03:27:43;93909.53;;;23.58;54.46
31337;BME280;22846;42.654;23.314;2023-11-18T03:30:10;93889.81;;;23.54;54.69
31337;BME280;22846;42.654;23.314;2023-11-18T03:32:36;93880.88;;;23.54;54.21
31337;BME280;22846;42.654;23.314;2023-11-18T03:35:03;93890.25;;;23.53;54.39
31337;BME280;22846;42.654;23.314;2023-11-18T03:37:32;93894.81;;;23.56;54.05
31337;BME280;22846;42.654;23.314;2023-11-18T03:39:57;93896.94;;;23.52;54.33
31337;BME280;22846;42.654;23.314;2023-11-18T03:42:23;93908.00;;;23.57;54.03
31337;BME280;22846;42.654;23.314;2023-11-18T03:44:48;93914.66;;;23.56;54.30
31337;BME280;22846;42.654;23.314;2023-11-18T03:47:14;93918.91;;;23.57;54.35
31337;BME280;22846;42.654;23.314;2023-11-18T03:49:42;93904.97;;;23.55;54.33
31337;BME280;22846;42.654;23.314;2023-11-18T03:52:08;93894.06;;;23.55;54.25
31337;BME280;22846;42.654;23.314;2023-11-18T03:54:34;93896.16;;;23.51;54.20
31337;BME280;22846;42.654;23.314;2023-11-18T03:56:59;93908.16;;;23.54;53.83
31337;BME280;22846;42.654;23.314;2023-11-18T03:59:25;93877.78;;;23.43;54.14
31337;BME280;22846;42.654;23.314;2023-11-18T04:01:51;93902.25;;;23.55;54.04
31337;BME280;22846;42.654;23.314;2023-11-18T04:04:17;93903.44;;;23.54;54.15
31337;BME280;22846;42.654;23.314;2023-11-18T04:06:43;93892.03;;;23.47;53.87
31337;BME280;22846;42.654;23.314;2023-11-18T04:09:09;93900.72;;;23.54;53.82
31337;BME280;22846;42.654;23.314;2023-11-18T04:11:35;93901.88;;;23.44;53.36
31337;BME280;22846;42.654;23.314;2023-11-18T04:14:01;93910.88;;;23.54;53.35
31337;BME280;22846;42.654;23.314;2023-11-18T04:16:28;93917.53;;;23.53;53.37
31337;BME280;22846;42.654;23.314;2023-11-18T04:18:53;93912.09;;;23.53;53.35
31337;BME280;22846;42.654;23.314;2023-11-18T04:21:19;93922.66;;;23.51;53.52
31337;BME280;22846;42.654;23.314;2023-11-18T04:23:44;93934.66;;;23.53;53.66
31337;BME280;22846;42.654;23.314;2023-11-18T04:26:12;93936.63;;;23.53;53.35
31337;BME280;22846;42.654;23.314;2023-11-18T04:28:38;93934.78;;;23.50;53.48
31337;BME280;22846;42.654;23.314;2023-11-18T04:31:04;93933.13;;;23.52;53.17
31337;BME280;22846;42.654;23.314;2023-11-18T04:33:30;93920.84;;;23.48;53.29
31337;BME280;22846;42.654;23.314;2023-11-18T04:35:56;93927.38;;;23.50;53.42
31337;BME280;22846;42.654;23.314;2023-11-18T04:38:22;93925.22;;;23.45;53.09
31337;BME280;22846;42.654;23.314;2023-11-18T04:40:48;93937.97;;;23.48;53.37
31337;BME280;22846;42.654;23.314;2023-11-18T04:43:14;93923.28;;;23.46;53.44
31337;BME280;22846;42.654;23.314;2023-11-18T04:45:40;93934.03;;;23.49;53.08
31337;BME280;22846;42.654;23.314;2023-11-18T04:48:06;93933.59;;;23.51;53.01
31337;BME280;22846;42.654;23.314;2023-11-18T04:50:33;93932.50;;;23.48;53.23
31337;BME280;22846;42.654;23.314;2023-11-18T04:52:59;93941.00;;;23.50;52.95
31337;BME280;22846;42.654;23.314;2023-11-18T04:55:24;93951.59;;;23.48;53.00
31337;BME280;22846;42.654;23.314;2023-11-18T04:57:54;93946.16;;;23.48;53.32
31337;BME280;22846;42.654;23.314;2023-11-18T05:00:20;93935.38;;;23.45;53.23
31337;BME280;22846;42.654;23.314;2023-11-18T05:02:47;93928.41;;;23.44;53.26
31337;BME280;22846;42.654;23.314;2023-11-18T05:05:13;93938.72;;;23.49;52.93
31337;BME280;22846;42.654;23.314;2023-11-18T05:07:40;93917.19;;;23.42;53.31
31337;BME280;22846;42.654;23.314;2023-11-18T05:10:06;93920.84;;;23.48;52.92
31337;BME280;22846;42.654;23.314;2023-11-18T05:12:36;93909.63;;;23.46;53.31
31337;BME280;22846;42.654;23.314;2023-11-18T05:15:02;93911.59;;;23.45;53.31
31337;BME280;22846;42.654;23.314;2023-11-18T05:17:29;93919.75;;;23.45;52.77
31337;BME280;22846;42.654;23.314;2023-11-18T05:19:55;93919.75;;;23.45;52.93
31337;BME280;22846;42.654;23.314;2023-11-18T05:22:20;93907.78;;;23.43;52.95
31337;BME280;22846;42.654;23.314;2023-11-18T05:24:46;93917.19;;;23.42;53.08
31337;BME280;22846;42.654;23.314;2023-11-18T05:27:13;93916.28;;;23.45;53.08
31337;BME280;22846;42.654;23.314;2023-11-18T05:29:39;93913.38;;;23.39;53.18
31337;BME280;22846;42.654;23.314;2023-11-18T05:32:07;93914.78;;;23.44;52.78
31337;BME280;22846;42.654;23.314;2023-11-18T05:34:33;93906.28;;;23.42;52.71
31337;BME280;22846;42.654;23.314;2023-11-18T05:37:00;93892.31;;;23.40;52.99
31337;BME280;22846;42.654;23.314;2023-11-18T05:39:26;93905.38;;;23.45;53.05
31337;BME280;22846;42.654;23.314;2023-11-18T05:41:54;93903.88;;;23.44;53.07
31337;BME280;22846;42.654;23.314;2023-11-18T05:44:21;93898.41;;;23.44;53.06
31337;BME280;22846;42.654;23.314;2023-11-18T05:46:58;93903.88;;;23.44;52.84
31337;BME280;22846;42.654;23.314;2023-11-18T05:49:23;93895.97;;;23.37;53.25
31337;BME280;22846;42.654;23.314;2023-11-18T05:51:49;93907.78;;;23.43;52.99
31337;BME280;22846;42.654;23.314;2023-11-18T05:54:15;93913.25;;;23.43;52.92
31337;BME280;22846;42.654;23.314;2023-11-18T05:56:40;93915.97;;;23.43;52.77
31337;BME280;22846;42.654;23.314;2023-11-18T05:59:06;93917.63;;;23.40;52.94
31337;BME280;22846;42.654;23.314;2023-11-18T06:01:33;93914.13;;;23.40;53.18
31337;BME280;22846;42.654;23.314;2023-11-18T06:03:59;93917.19;;;23.42;52.96
31337;BME280;22846;42.654;23.314;2023-11-18T06:06:26;93916.44;;;23.41;53.03
31337;BME280;22846;42.654;23.314;2023-11-18T06:08:52;93918.06;;;23.39;53.00
31337;BME280;22846;42.654;23.314;2023-11-18T06:11:19;93922.63;;;23.42;53.13
31337;BME280;22846;42.654;23.314;2023-11-18T06:13:49;93924.09;;;23.34;52.83
31337;BME280;22846;42.654;23.314;2023-11-18T06:18:43;93941.41;;;23.40;52.86
31337;BME280;22846;42.654;23.314;2023-11-18T06:23:39;93932.00;;;23.41;52.64
31337;BME280;22846;42.654;23.314;2023-11-18T06:26:05;93921.25;;;23.37;52.54
31337;BME280;22846;42.654;23.314;2023-11-18T06:28:30;93929.28;;;23.41;52.46
31337;BME280;22846;42.654;23.314;2023-11-18T06:30:59;93913.06;;;23.37;52.46
31337;BME280;22846;42.654;23.314;2023-11-18T06:33:24;93915.03;;;23.37;52.64
31337;BME280;22846;42.654;23.314;2023-11-18T06:35:53;93914.91;;;23.40;52.48
31337;BME280;22846;42.654;23.314;2023-11-18T06:38:20;93915.66;;;23.41;52.65
31337;BME280;22846;42.654;23.314;2023-11-18T06:40:46;93898.03;;;23.33;52.75
31337;BME280;22846;42.654;23.314;2023-11-18T06:43:11;93905.03;;;23.34;52.75
31337;BME280;22846;42.654;23.314;2023-11-18T06:45:42;93906.53;;;23.35;52.43
31337;BME280;22846;42.654;23.314;2023-11-18T06:48:08;93914.59;;;23.38;52.69
31337;BME280;22846;42.654;23.314;2023-11-18T06:50:34;93922.91;;;23.35;52.35
31337;BME280;22846;42.654;23.314;2023-11-18T06:53:00;93910.28;;;23.28;52.77
31337;BME280;22846;42.654;23.314;2023-11-18T06:55:26;93912.28;;;23.28;52.33
31337;BME280;22846;42.654;23.314;2023-11-18T06:57:52;93935.19;;;23.39;52.59
31337;BME280;22846;42.654;23.314;2023-11-18T07:00:19;93933.22;;;23.40;52.29
31337;BME280;22846;42.654;23.314;2023-11-18T07:02:47;93942.16;;;23.40;52.72
31337;BME280;22846;42.654;23.314;2023-11-18T07:05:12;93924.44;;;23.36;52.66
31337;BME280;22846;42.654;23.314;2023-11-18T07:07:40;93942.59;;;23.39;52.63
31337;BME280;22846;42.654;23.314;2023-11-18T07:10:06;93936.09;;;23.36;52.56
31337;BME280;22846;42.654;23.314;2023-11-18T07:12:34;93943.38;;;23.39;52.37
31337;BME280;22846;42.654;23.314;2023-11-18T07:15:04;93946.84;;;23.40;52.38
31337;BME280;22846;42.654;23.314;2023-11-18T07:17:30;93941.22;;;23.34;52.64
31337;BME280;22846;42.654;23.314;2023-11-18T07:19:55;93941.41;;;23.40;52.83
31337;BME280;22846;42.654;23.314;2023-11-18T07:22:21;93936.97;;;23.33;52.24
31337;BME280;22846;42.654;23.314;2023-11-18T07:24:46;93945.31;;;23.39;52.48
31337;BME280;22846;42.654;23.314;2023-11-18T07:27:12;93939.25;;;23.35;52.38
31337;BME280;22846;42.654;23.314;2023-11-18T07:29:38;93948.81;;;23.39;52.42
31337;BME280;22846;42.654;23.314;2023-11-18T07:32:04;93944.72;;;23.35;52.75
31337;BME280;22846;42.654;23.314;2023-11-18T07:34:31;93953.97;;;23.37;52.78
31337;BME280;22846;42.654;23.314;2023-11-18T07:36:58;93962.88;;;23.38;52.79
31337;BME280;22846;42.654;23.314;2023-11-18T07:39:24;93956.19;;;23.30;52.71
31337;BME280;22846;42.654;23.314;2023-11-18T07:42:01;93966.84;;;23.37;52.85
31337;BME280;22846;42.654;23.314;2023-11-18T07:44:33;93974.69;;;23.35;52.64
31337;BME280;22846;42.654;23.314;2023-11-18T07:46:59;93964.06;;;23.28;52.84
31337;BME280;22846;42.654;23.314;2023-11-18T07:49:24;93972.72;;;23.35;52.37
31337;BME280;22846;42.654;23.314;2023-11-18T07:51:51;93945.34;;;23.17;52.35
31337;BME280;22846;42.654;23.314;2023-11-18T07:54:17;93961.75;;;23.26;52.02
31337;BME280;22846;42.654;23.314;2023-11-18T07:56:43;93941.06;;;23.29;51.83
31337;BME280;22846;42.654;23.314;2023-11-18T07:59:11;93913.59;;;23.02;52.03
31337;BME280;22846;42.654;23.314;2023-11-18T08:01:45;93920.78;;;23.08;51.67
31337;BME280;22846;42.654;23.314;2023-11-18T08:04:14;93956.63;;;23.28;51.86
31337;BME280;22846;42.654;23.314;2023-11-18T08:06:40;93946.19;;;23.27;51.84
31337;BME280;22846;42.654;23.314;2023-11-18T08:09:06;93978.31;;;23.32;52.21
31337;BME280;22846;42.654;23.314;2023-11-18T08:11:38;93979.09;;;23.32;52.20
31337;BME280;22846;42.654;23.314;2023-11-18T08:14:07;93942.91;;;23.10;51.91
31337;BME280;22846;42.654;23.314;2023-11-18T08:16:33;93979.97;;;23.29;52.09
31337;BME280;22846;42.654;23.314;2023-11-18T08:18:59;93973.13;;;23.25;51.78
31337;BME280;22846;42.654;23.314;2023-11-18T08:21:25;93936.28;;;22.99;51.95
31337;BME280;22846;42.654;23.314;2023-11-18T08:23:50;93932.59;;;23.06;52.09
31337;BME280;22846;42.654;23.314;2023-11-18T08:26:16;93964.00;;;23.19;52.13
31337;BME280;22846;42.654;23.314;2023-11-18T08:28:41;93972.66;;;23.26;52.19
31337;BME280;22846;42.654;23.314;2023-11-18T08:31:06;93926.53;;;23.10;52.21
31337;BME280;22846;42.654;23.314;2023-11-18T08:33:32;93942.16;;;23.10;51.78
31337;BME280;22846;42.654;23.314;2023-11-18T08:35:59;93954.63;;;23.20;52.21
31337;BME280;22846;42.654;23.314;2023-11-18T08:38:27;93971.47;;;23.27;52.06
31337;BME280;22846;42.654;23.314;2023-11-18T08:40:53;93970.22;;;23.19;51.73
31337;BME280;22846;42.654;23.314;2023-11-18T08:43:18;93970.84;;;23.23;52.09
31337;BME280;22846;42.654;23.314;2023-11-18T08:45:46;93975.53;;;23.23;51.93
31337;BME280;22846;42.654;23.314;2023-11-18T08:48:12;93980.09;;;23.26;51.96
31337;BME280;22846;42.654;23.314;2023-11-18T08:50:38;93965.91;;;23.09;51.81
31337;BME280;22846;42.654;23.314;2023-11-18T08:53:08;93981.25;;;23.16;51.81
31337;BME280;22846;42.654;23.314;2023-11-18T08:55:34;93988.03;;;23.11;51.57
31337;BME280;22846;42.654;23.314;2023-11-18T08:58:11;93991.47;;;23.24;51.75
31337;BME280;22846;42.654;23.314;2023-11-18T09:00:57;93999.19;;;23.26;51.27
31337;BME280;22846;42.654;23.314;2023-11-18T09:03:39;93986.44;;;23.23;51.21
31337;BME280;22846;42.654;23.314;2023-11-18T09:06:09;93974.41;;;23.11;51.52
31337;BME280;22846;42.654;23.314;2023-11-18T09:08:45;93982.50;;;23.24;51.47
31337;BME280;22846;42.654;23.314;2023-11-18T09:11:13;93977.00;;;23.15;51.43
31337;BME280;22846;42.654;23.314;2023-11-18T09:13:46;93982.97;;;23.22;51.38
31337;BME280;22846;42.654;23.314;2023-11-18T09:16:15;93958.41;;;23.01;51.58
31337;BME280;22846;42.654;23.314;2023-11-18T09:18:43;93984.63;;;23.20;51.17
31337;BME280;22846;42.654;23.314;2023-11-18T09:21:11;93990.34;;;23.22;51.60
31337;BME280;22846;42.654;23.314;2023-11-18T09:23:41;93985.38;;;23.20;51.32
31337;BME280;22846;42.654;23.314;2023-11-18T09:26:07;93968.31;;;23.08;51.29
31337;BME280;22846;42.654;23.314;2023-11-18T09:28:34;93981.88;;;23.20;51.25
31337;BME280;22846;42.654;23.314;2023-11-18T09:31:01;93987.34;;;23.20;51.57
31337;BME280;22846;42.654;23.314;2023-11-18T09:33:30;93983.22;;;23.15;51.39
31337;BME280;22846;42.654;23.314;2023-11-18T09:36:05;93981.44;;;23.21;51.28
31337;BME280;22846;42.654;23.314;2023-11-18T09:38:37;93987.34;;;23.20;51.17
31337;BME280;22846;42.654;23.314;2023-11-18T09:41:06;93969.75;;;23.21;51.19
31337;BME280;22846;42.654;23.314;2023-11-18T09:43:33;93978.53;;;23.16;51.35
31337;BME280;22846;42.654;23.314;2023-11-18T09:46:07;93984.66;;;23.08;51.11
31337;BME280;22846;42.654;23.314;2023-11-18T09:48:48;93977.56;;;23.10;51.44
31337;BME280;22846;42.654;23.314;2023-11-18T09:51:26;93994.00;;;23.19;51.17
31337;BME280;22846;42.654;23.314;2023-11-18T09:53:59;93986.03;;;23.12;51.71
31337;BME280;22846;42.654;23.314;2023-11-18T09:59:25;93984.53;;;23.32;51.61
31337;BME280;22846;42.654;23.314;2023-11-18T10:01:57;93996.56;;;23.44;51.59
31337;BME280;22846;42.654;23.314;2023-11-18T10:04:26;93987.53;;;23.56;51.37
31337;BME280;22846;42.654;23.314;2023-11-18T10:06:55;93959.22;;;23.62;51.05
31337;BME280;22846;42.654;23.314;2023-11-18T10:09:23;93957.22;;;23.75;50.94
31337;BME280;22846;42.654;23.314;2023-11-18T10:12:02;93981.53;;;23.91;50.72
31337;BME280;22846;42.654;23.314;2023-11-18T10:14:33;93968.34;;;23.98;50.30
31337;BME280;22846;42.654;23.314;2023-11-18T10:16:58;93979.16;;;24.11;50.23
31337;BME280;22846;42.654;23.314;2023-11-18T10:19:25;93968.69;;;24.09;49.96
31337;BME280;22846;42.654;23.314;2023-11-18T10:21:51;93989.06;;;24.26;49.61
31337;BME280;22846;42.654;23.314;2023-11-18T10:24:20;93988.63;;;24.28;49.80
31337;BME280;22846;42.654;23.314;2023-11-18T10:26:53;93988.19;;;24.38;49.33
31337;BME280;22846;42.654;23.314;2023-11-18T10:29:23;93985.47;;;24.38;48.98
31337;BME280;22846;42.654;23.314;2023-11-18T10:31:48;93983.97;;;24.46;49.15
31337;BME280;22846;42.654;23.314;2023-11-18T10:34:14;93991.00;;;24.56;48.78
31337;BME280;22846;42.654;23.314;2023-11-18T10:36:59;93975.78;;;24.46;48.93
31337;BME280;22846;42.654;23.314;2023-11-18T10:39:29;93984.00;;;24.64;48.93
31337;BME280;22846;42.654;23.314;2023-11-18T10:42:04;93988.56;;;24.67;48.75
31337;BME280;22846;42.654;23.314;2023-11-18T10:44:29;93977.63;;;24.67;48.56
31337;BME280;22846;42.654;23.314;2023-11-18T10:46:55;93977.63;;;24.67;48.44
31337;BME280;22846;42.654;23.314;2023-11-18T10:49:27;93990.53;;;24.76;48.75
31337;BME280;22846;42.654;23.314;2023-11-18T10:51:55;93991.16;;;24.79;48.37
31337;BME280;22846;42.654;23.314;2023-11-18T10:54:21;93980.53;;;24.81;48.08
31337;BME280;22846;42.654;23.314;2023-11-18T10:56:48;93971.72;;;24.77;47.93
31337;BME280;22846;42.654;23.314;2023-11-18T10:59:14;93970.22;;;24.85;47.78
31337;BME280;22846;42.654;23.314;2023-11-18T11:01:44;93972.16;;;24.85;47.94
31337;BME280;22846;42.654;23.314;2023-11-18T11:04:13;93969.31;;;24.79;47.95
31337;BME280;22846;42.654;23.314;2023-11-18T11:06:43;93974.78;;;24.79;48.13
31337;BME280;22846;42.654;23.314;2023-11-18T11:09:11;93963.97;;;24.85;48.13
31337;BME280;22846;42.654;23.314;2023-11-18T11:11:48;93946.06;;;24.84;48.03
31337;BME280;22846;42.654;23.314;2023-11-18T11:14:15;93948.19;;;24.80;48.11
31337;BME280;22846;42.654;23.314;2023-11-18T11:16:47;93960.66;;;24.81;48.12
31337;BME280;22846;42.654;23.314;2023-11-18T11:19:26;93958.06;;;24.77;48.41
31337;BME280;22846;42.654;23.314;2023-11-18T11:22:04;93954.56;;;24.86;47.89
31337;BME280;22846;42.654;23.314;2023-11-18T11:27:34;93952.13;;;24.88;48.08
31337;BME280;22846;42.654;23.314;2023-11-18T11:33:27;93961.09;;;24.88;48.24
31337;BME280;22846;42.654;23.314;2023-11-18T11:35:55;93952.13;;;24.88;47.97
31337;BME280;22846;42.654;23.314;2023-11-18T11:38:25;93951.22;;;24.91;48.15
31337;BME280;22846;42.654;23.314;2023-11-18T11:40:53;93943.34;;;24.84;47.65
31337;BME280;22846;42.654;23.314;2023-11-18T11:43:20;93951.97;;;24.91;48.13
31337;BME280;22846;42.654;23.314;2023-11-18T11:45:55;93955.94;;;24.90;48.08
31337;BME280;22846;42.654;23.314;2023-11-18T11:48:24;93945.16;;;24.87;47.72
31337;BME280;22846;42.654;23.314;2023-11-18T11:53:32;93931.16;;;24.94;47.97
31337;BME280;22846;42.654;23.314;2023-11-18T11:56:01;93951.66;;;24.98;47.58
31337;BME280;22846;42.654;23.314;2023-11-18T11:58:35;93934.38;;;24.92;47.41
31337;BME280;22846;42.654;23.314;2023-11-18T12:01:24;93938.47;;;24.97;47.46
31337;BME280;22846;42.654;23.314;2023-11-18T12:03:53;93935.72;;;24.97;47.78
31337;BME280;22846;42.654;23.314;2023-11-18T12:06:23;93950.75;;;25.01;47.27
31337;BME280;22846;42.654;23.314;2023-11-18T12:08:51;93941.19;;;24.97;47.30
31337;BME280;22846;42.654;23.314;2023-11-18T12:11:18;93930.88;;;24.92;47.34
31337;BME280;22846;42.654;23.314;2023-11-18T12:14:05;93946.66;;;24.97;47.29
31337;BME280;22846;42.654;23.314;2023-11-18T12:17:06;93944.81;;;25.03;47.23
31337;BME280;22846;42.654;23.314;2023-11-18T12:19:46;93945.28;;;25.01;47.17
31337;BME280;22846;42.654;23.314;2023-11-18T12:22:20;93943.63;;;25.04;46.89
31337;BME280;22846;42.654;23.314;2023-11-18T12:33:03;93946.66;;;25.06;46.82
31337;BME280;22846;42.654;23.314;2023-11-18T12:41:01;93933.00;;;25.06;46.78
31337;BME280;22846;42.654;23.314;2023-11-18T12:43:52;93946.34;;;25.04;46.60
31337;BME280;22846;42.654;23.314;2023-11-18T12:49:14;93949.09;;;25.04;46.56
31337;BME280;22846;42.654;23.314;2023-11-18T12:51:45;93959.41;;;25.09;46.76
31337;BME280;22846;42.654;23.314;2023-11-18T12:54:11;93961.53;;;25.05;46.54
31337;BME280;22846;42.654;23.314;2023-11-18T12:56:38;93957.00;;;25.11;46.58
31337;BME280;22846;42.654;23.314;2023-11-18T12:59:09;93961.22;;;25.03;46.84
31337;BME280;22846;42.654;23.314;2023-11-18T13:01:35;93962.59;;;25.07;46.77
31337;BME280;22846;42.654;23.314;2023-11-18T13:04:04;93975.81;;;25.09;46.46
31337;BME280;22846;42.654;23.314;2023-11-18T13:06:30;93949.09;;;25.04;46.68
31337;BME280;22846;42.654;23.314;2023-11-18T13:08:55;93967.94;;;25.11;46.53
31337;BME280;22846;42.654;23.314;2023-11-18T13:11:24;93966.53;;;25.06;46.41
31337;BME280;22846;42.654;23.314;2023-11-18T13:13:53;93959.00;;;25.10;46.33
31337;BME280;22846;42.654;23.314;2023-11-18T13:16:19;93970.53;;;25.14;46.16
31337;BME280;22846;42.654;23.314;2023-11-18T13:18:45;93976.44;;;25.13;46.23
31337;BME280;22846;42.654;23.314;2023-11-18T13:21:15;93970.06;;;25.16;46.20
31337;BME280;22846;42.654;23.314;2023-11-18T13:23:52;93964.88;;;25.09;46.57
31337;BME280;22846;42.654;23.314;2023-11-18T13:26:20;93974.78;;;25.15;46.63
31337;BME280;22846;42.654;23.314;2023-11-18T13:28:46;93979.00;;;25.07;46.50